sensor_id;sensor_type;location;lat;lon;timestamp;pressure;altitude;pressure_sealevel;temperature;humidity
55271;BME280;41132;47.162;9.470;2023-05-29T00:00:43;96380.06;;;15.54;95.30
55271;BME280;41132;47.162;9.470;2023-05-29T00:03:09;96372.00;;;15.40;97.77
55271;BME280;41132;47.162;9.470;2023-05-29T00:05:35;96380.56;;;15.42;97.98
55271;BME280;41132;47.162;9.470;2023-05-29T00:08:01;96383.47;;;15.48;96.41
55271;BME280;41132;47.162;9.470;2023-05-29T00:10:26;96383.03;;;15.65;95.05
55271;BME280;41132;47.162;9.470;2023-05-29T00:12:51;96387.03;;;15.61;95.72
55271;BME280;41132;47.162;9.470;2023-05-29T00:15:17;96374.47;;;15.42;97.23
55271;BME280;41132;47.162;9.470;2023-05-29T00:17:43;96379.69;;;15.35;98.57
55271;BME280;41132;47.162;9.470;2023-05-29T00:20:09;96363.88;;;15.20;99.35
55271;BME280;41132;47.162;9.470;2023-05-29T00:22:35;96377.53;;;15.24;98.04
55271;BME280;41132;47.162;9.470;2023-05-29T00:25:06;96389.13;;;15.23;100.00
55271;BME280;41132;47.162;9.470;2023-05-29T00:27:33;96378.75;;;15.43;97.36
55271;BME280;41132;47.162;9.470;2023-05-29T00:29:59;96373.78;;;15.33;99.97
55271;BME280;41132;47.162;9.470;2023-05-29T00:32:24;96378.19;;;15.26;100.00
55271;BME280;41132;47.162;9.470;2023-05-29T00:34:50;96374.41;;;15.35;99.26
55271;BME280;41132;47.162;9.470;2023-05-29T00:37:16;96373.06;;;15.46;95.69
55271;BME280;41132;47.162;9.470;2023-05-29T00:39:42;96375.41;;;15.77;93.17
55271;BME280;41132;47.162;9.470;2023-05-29T00:42:07;96362.69;;;15.44;97.09
55271;BME280;41132;47.162;9.470;2023-05-29T00:44:32;96356.66;;;15.29;97.76
55271;BME280;41132;47.162;9.470;2023-05-29T00:46:58;96386.44;;;15.38;99.15
55271;BME280;41132;47.162;9.470;2023-05-29T00:49:24;96356.91;;;15.13;99.55
55271;BME280;41132;47.162;9.470;2023-05-29T00:51:51;96373.94;;;15.10;100.00
55271;BME280;41132;47.162;9.470;2023-05-29T00:54:20;96386.16;;;15.11;100.00
55271;BME280;41132;47.162;9.470;2023-05-29T00:56:47;96384.94;;;15.14;99.41
55271;BME280;41132;47.162;9.470;2023-05-29T00:59:12;96379.50;;;15.00;100.00
55271;BME280;41132;47.162;9.470;2023-05-29T01:01:38;96390.28;;;14.99;100.00
55271;BME280;41132;47.162;9.470;2023-05-29T01:04:05;96381.09;;;14.95;100.00
55271;BME280;41132;47.162;9.470;2023-05-29T01:06:34;96373.81;;;14.82;100.00
55271;BME280;41132;47.162;9.470;2023-05-29T01:09:00;96385.84;;;14.85;100.00
55271;BME280;41132;47.162;9.470;2023-05-29T01:14:29;96373.94;;;14.74;100.00
55271;BME280;41132;47.162;9.470;2023-05-29T01:17:09;96372.47;;;14.71;100.00
55271;BME280;41132;47.162;9.470;2023-05-29T01:20:02;96364.75;;;14.55;100.00
55271;BME280;41132;47.162;9.470;2023-05-29T01:25:11;96384.56;;;14.51;100.00
55271;BME280;41132;47.162;9.470;2023-05-29T01:27:40;96382.38;;;14.39;100.00
55271;BME280;41132;47.162;9.470;2023-05-29T01:30:07;96379.94;;;14.38;100.00
55271;BME280;41132;47.162;9.470;2023-05-29T01:32:33;96386.84;;;14.39;100.00
55271;BME280;41132;47.162;9.470;2023-05-29T01:34:59;96367.28;;;14.33;100.00
55271;BME280;41132;47.162;9.470;2023-05-29T01:37:25;96379.75;;;14.39;100.00
55271;BME280;41132;47.162;9.470;2023-05-29T01:39:52;96381.31;;;14.34;100.00
55271;BME280;41132;47.162;9.470;2023-05-29T01:42:18;96388.31;;;14.27;100.00
55271;BME280;41132;47.162;9.470;2023-05-29T01:44:44;96370.81;;;14.26;100.00
55271;BME280;41132;47.162;9.470;2023-05-29T01:47:11;96388.84;;;14.37;100.00
55271;BME280;41132;47.162;9.470;2023-05-29T01:49:37;96387.75;;;14.31;100.00
55271;BME280;41132;47.162;9.470;2023-05-29T01:52:03;96367.81;;;14.14;100.00
55271;BME280;41132;47.162;9.470;2023-05-29T01:54:28;96367.28;;;14.18;100.00
55271;BME280;41132;47.162;9.470;2023-05-29T01:56:54;96385.28;;;14.30;100.00
55271;BME280;41132;47.162;9.470;2023-05-29T01:59:21;96394.78;;;14.24;100.00
55271;BME280;41132;47.162;9.470;2023-05-29T02:01:47;96391.59;;;14.29;100.00
55271;BME280;41132;47.162;9.470;2023-05-29T02:04:13;96401.25;;;14.22;100.00
55271;BME280;41132;47.162;9.470;2023-05-29T02:06:38;96391.19;;;14.17;100.00
55271;BME280;41132;47.162;9.470;2023-05-29T02:09:03;96392.56;;;14.13;100.00
55271;BME280;41132;47.162;9.470;2023-05-29T02:11:29;96376.81;;;14.05;100.00
55271;BME280;41132;47.162;9.470;2023-05-29T02:13:54;96383.28;;;14.02;100.00
55271;BME280;41132;47.162;9.470;2023-05-29T02:16:20;96373.63;;;13.94;100.00
55271;BME280;41132;47.162;9.470;2023-05-29T02:18:46;96386.28;;;13.99;100.00
55271;BME280;41132;47.162;9.470;2023-05-29T02:21:12;96376.59;;;13.91;100.00
55271;BME280;41132;47.162;9.470;2023-05-29T02:23:38;96376.44;;;13.93;100.00
55271;BME280;41132;47.162;9.470;2023-05-29T02:26:05;96380.16;;;13.98;100.00
55271;BME280;41132;47.162;9.470;2023-05-29T02:28:30;96373.63;;;13.94;100.00
55271;BME280;41132;47.162;9.470;2023-05-29T02:30:56;96372.34;;;13.90;100.00
55271;BME280;41132;47.162;9.470;2023-05-29T02:33:21;96374.44;;;13.95;100.00
55271;BME280;41132;47.162;9.470;2023-05-29T02:35:47;96380.06;;;13.92;100.00
55271;BME280;41132;47.162;9.470;2023-05-29T02:38:12;96386.81;;;13.94;100.00
55271;BME280;41132;47.162;9.470;2023-05-29T02:40:37;96376.41;;;14.31;100.00
55271;BME280;41132;47.162;9.470;2023-05-29T02:43:03;96385.78;;;14.33;100.00
55271;BME280;41132;47.162;9.470;2023-05-29T02:45:28;96369.72;;;14.05;100.00
55271;BME280;41132;47.162;9.470;2023-05-29T02:47:53;96358.69;;;13.87;100.00
55271;BME280;41132;47.162;9.470;2023-05-29T02:50:19;96378.69;;;13.81;100.00
55271;BME280;41132;47.162;9.470;2023-05-29T02:52:44;96389.69;;;13.85;100.00
55271;BME280;41132;47.162;9.470;2023-05-29T02:55:10;96374.22;;;13.82;100.00
55271;BME280;41132;47.162;9.470;2023-05-29T02:57:35;96373.00;;;13.69;100.00
55271;BME280;41132;47.162;9.470;2023-05-29T03:00:01;96358.56;;;13.65;100.00
55271;BME280;41132;47.162;9.470;2023-05-29T03:02:30;96376.19;;;13.65;100.00
55271;BME280;41132;47.162;9.470;2023-05-29T03:04:55;96372.28;;;13.61;100.00
55271;BME280;41132;47.162;9.470;2023-05-29T03:07:21;96377.56;;;13.61;100.00
55271;BME280;41132;47.162;9.470;2023-05-29T03:09:46;96384.94;;;13.65;100.00
55271;BME280;41132;47.162;9.470;2023-05-29T03:12:12;96373.97;;;13.53;100.00
55271;BME280;41132;47.162;9.470;2023-05-29T03:14:37;96347.56;;;13.39;100.00
55271;BME280;41132;47.162;9.470;2023-05-29T03:17:06;96369.44;;;13.62;100.00
55271;BME280;41132;47.162;9.470;2023-05-29T03:19:34;96341.00;;;13.34;100.00
55271;BME280;41132;47.162;9.470;2023-05-29T03:22:00;96368.69;;;13.53;100.00
55271;BME280;41132;47.162;9.470;2023-05-29T03:24:25;96370.19;;;13.56;100.00
55271;BME280;41132;47.162;9.470;2023-05-29T03:26:50;96359.44;;;13.57;100.00
55271;BME280;41132;47.162;9.470;2023-05-29T03:29:16;96361.25;;;13.57;100.00
55271;BME280;41132;47.162;9.470;2023-05-29T03:31:42;96363.50;;;13.45;100.00
55271;BME280;41132;47.162;9.470;2023-05-29T03:34:07;96342.13;;;13.40;100.00
55271;BME280;41132;47.162;9.470;2023-05-29T03:36:33;96379.88;;;13.55;100.00
55271;BME280;41132;47.162;9.470;2023-05-29T03:38:58;96371.41;;;13.45;100.00
55271;BME280;41132;47.162;9.470;2023-05-29T03:41:24;96373.13;;;13.38;100.00
55271;BME280;41132;47.162;9.470;2023-05-29T03:43:50;96363.38;;;13.39;100.00
55271;BME280;41132;47.162;9.470;2023-05-29T03:46:16;96376.69;;;13.45;100.00
55271;BME280;41132;47.162;9.470;2023-05-29T03:48:41;96366.66;;;13.41;100.00
55271;BME280;41132;47.162;9.470;2023-05-29T03:51:06;96374.28;;;13.58;100.00
55271;BME280;41132;47.162;9.470;2023-05-29T03:53:32;96374.97;;;13.52;100.00
55271;BME280;41132;47.162;9.470;2023-05-29T03:55:57;96371.03;;;13.48;100.00
55271;BME280;41132;47.162;9.470;2023-05-29T03:58:23;96375.56;;;13.63;100.00
55271;BME280;41132;47.162;9.470;2023-05-29T04:00:48;96379.47;;;13.44;100.00
55271;BME280;41132;47.162;9.470;2023-05-29T04:03:13;96384.06;;;13.50;100.00
55271;BME280;41132;47.162;9.470;2023-05-29T04:05:40;96359.34;;;13.28;100.00
55271;BME280;41132;47.162;9.470;2023-05-29T04:08:05;96381.41;;;13.50;100.00
55271;BME280;41132;47.162;9.470;2023-05-29T04:10:31;96387.69;;;13.49;100.00
55271;BME280;41132;47.162;9.470;2023-05-29T04:13:00;96389.44;;;13.56;100.00
55271;BME280;41132;47.162;9.470;2023-05-29T04:15:26;96388.09;;;13.61;100.00
55271;BME280;41132;47.162;9.470;2023-05-29T04:17:52;96385.63;;;13.59;100.00
55271;BME280;41132;47.162;9.470;2023-05-29T04:20:17;96373.53;;;13.65;100.00
55271;BME280;41132;47.162;9.470;2023-05-29T04:22:42;96395.22;;;13.75;100.00
55271;BME280;41132;47.162;9.470;2023-05-29T04:25:08;96382.84;;;13.61;100.00
55271;BME280;41132;47.162;9.470;2023-05-29T04:27:33;96376.91;;;13.58;100.00
55271;BME280;41132;47.162;9.470;2023-05-29T04:30:04;96370.50;;;13.53;100.00
55271;BME280;41132;47.162;9.470;2023-05-29T04:32:29;96402.56;;;13.65;100.00
55271;BME280;41132;47.162;9.470;2023-05-29T04:34:55;96388.38;;;13.66;100.00
55271;BME280;41132;47.162;9.470;2023-05-29T04:37:20;96419.34;;;13.87;100.00
55271;BME280;41132;47.162;9.470;2023-05-29T04:39:55;96410.38;;;13.96;100.00
55271;BME280;41132;47.162;9.470;2023-05-29T04:42:21;96421.25;;;14.16;100.00
55271;BME280;41132;47.162;9.470;2023-05-29T04:44:47;96395.75;;;14.08;100.00
55271;BME280;41132;47.162;9.470;2023-05-29T04:47:14;96399.41;;;14.22;100.00
55271;BME280;41132;47.162;9.470;2023-05-29T04:49:41;96419.88;;;14.35;100.00
55271;BME280;41132;47.162;9.470;2023-05-29T04:52:07;96425.38;;;14.33;100.00
55271;BME280;41132;47.162;9.470;2023-05-29T04:54:33;96423.38;;;14.35;100.00
55271;BME280;41132;47.162;9.470;2023-05-29T04:56:59;96421.81;;;14.41;100.00
55271;BME280;41132;47.162;9.470;2023-05-29T04:59:25;96432.72;;;14.53;100.00
55271;BME280;41132;47.162;9.470;2023-05-29T05:01:51;96430.84;;;14.61;100.00
55271;BME280;41132;47.162;9.470;2023-05-29T05:04:17;96446.41;;;14.71;100.00
55271;BME280;41132;47.162;9.470;2023-05-29T05:06:42;96426.13;;;14.57;100.00
55271;BME280;41132;47.162;9.470;2023-05-29T05:09:09;96433.13;;;14.65;100.00
55271;BME280;41132;47.162;9.470;2023-05-29T05:11:35;96425.13;;;14.58;100.00
55271;BME280;41132;47.162;9.470;2023-05-29T05:14:00;96433.97;;;14.65;100.00
55271;BME280;41132;47.162;9.470;2023-05-29T05:16:26;96438.41;;;14.79;100.00
55271;BME280;41132;47.162;9.470;2023-05-29T05:18:51;96450.44;;;14.82;100.00
55271;BME280;41132;47.162;9.470;2023-05-29T05:21:16;96457.81;;;14.87;100.00
55271;BME280;41132;47.162;9.470;2023-05-29T05:23:42;96451.97;;;14.91;100.00
55271;BME280;41132;47.162;9.470;2023-05-29T05:26:07;96446.78;;;14.98;100.00
55271;BME280;41132;47.162;9.470;2023-05-29T05:28:32;96448.22;;;15.00;100.00
55271;BME280;41132;47.162;9.470;2023-05-29T05:30:59;96451.34;;;15.04;100.00
55271;BME280;41132;47.162;9.470;2023-05-29T05:33:24;96447.13;;;15.10;100.00
55271;BME280;41132;47.162;9.470;2023-05-29T05:35:50;96431.19;;;15.03;100.00
55271;BME280;41132;47.162;9.470;2023-05-29T05:38:15;96441.81;;;15.24;99.14
55271;BME280;41132;47.162;9.470;2023-05-29T05:40:41;96451.38;;;15.25;100.00
55271;BME280;41132;47.162;9.470;2023-05-29T05:43:06;96449.81;;;15.31;100.00
55271;BME280;41132;47.162;9.470;2023-05-29T05:45:32;96430.13;;;15.34;95.94
55271;BME280;41132;47.162;9.470;2023-05-29T05:47:57;96456.78;;;15.54;94.00
55271;BME280;41132;47.162;9.470;2023-05-29T05:50:23;96441.78;;;15.61;95.31
55271;BME280;41132;47.162;9.470;2023-05-29T05:52:49;96449.25;;;15.57;97.31
55271;BME280;41132;47.162;9.470;2023-05-29T05:55:15;96442.53;;;15.55;98.04
55271;BME280;41132;47.162;9.470;2023-05-29T05:57:40;96433.22;;;15.59;95.23
55271;BME280;41132;47.162;9.470;2023-05-29T06:00:06;96453.66;;;15.86;91.35
55271;BME280;41132;47.162;9.470;2023-05-29T06:02:38;96459.19;;;15.92;90.68
55271;BME280;41132;47.162;9.470;2023-05-29T06:05:08;96449.84;;;15.96;93.05
55271;BME280;41132;47.162;9.470;2023-05-29T06:07:34;96448.97;;;16.10;92.03
55271;BME280;41132;47.162;9.470;2023-05-29T06:10:01;96457.69;;;16.32;89.48
55271;BME280;41132;47.162;9.470;2023-05-29T06:12:26;96452.88;;;17.19;86.46
55271;BME280;41132;47.162;9.470;2023-05-29T06:14:52;96461.28;;;18.10;77.75
55271;BME280;41132;47.162;9.470;2023-05-29T06:17:18;96461.81;;;18.99;72.37
55271;BME280;41132;47.162;9.470;2023-05-29T06:19:43;96446.94;;;19.30;71.47
55271;BME280;41132;47.162;9.470;2023-05-29T06:22:08;96459.09;;;20.46;65.91
55271;BME280;41132;47.162;9.470;2023-05-29T06:24:34;96437.91;;;21.13;61.75
55271;BME280;41132;47.162;9.470;2023-05-29T06:26:59;96446.69;;;21.32;58.68
55271;BME280;41132;47.162;9.470;2023-05-29T06:29:24;96432.25;;;21.70;57.50
55271;BME280;41132;47.162;9.470;2023-05-29T06:31:50;96423.75;;;22.03;56.65
55271;BME280;41132;47.162;9.470;2023-05-29T06:34:15;96447.53;;;22.35;56.41
55271;BME280;41132;47.162;9.470;2023-05-29T06:36:41;96435.41;;;22.80;54.01
55271;BME280;41132;47.162;9.470;2023-05-29T06:39:07;96453.81;;;23.00;54.43
55271;BME280;41132;47.162;9.470;2023-05-29T06:41:32;96449.59;;;23.04;50.67
55271;BME280;41132;47.162;9.470;2023-05-29T06:43:58;96435.84;;;23.52;49.57
55271;BME280;41132;47.162;9.470;2023-05-29T06:46:23;96432.56;;;24.08;51.09
55271;BME280;41132;47.162;9.470;2023-05-29T06:48:48;96435.56;;;23.94;49.49
55271;BME280;41132;47.162;9.470;2023-05-29T06:51:15;96454.41;;;24.33;45.82
55271;BME280;41132;47.162;9.470;2023-05-29T06:53:41;96424.56;;;23.79;46.18
55271;BME280;41132;47.162;9.470;2023-05-29T06:56:07;96442.38;;;24.36;48.44
55271;BME280;41132;47.162;9.470;2023-05-29T06:58:33;96415.69;;;25.02;49.17
55271;BME280;41132;47.162;9.470;2023-05-29T07:00:58;96438.28;;;25.50;47.72
55271;BME280;41132;47.162;9.470;2023-05-29T07:03:28;96434.34;;;25.31;45.88
55271;BME280;41132;47.162;9.470;2023-05-29T07:05:54;96432.75;;;25.13;46.66
55271;BME280;41132;47.162;9.470;2023-05-29T07:08:20;96416.59;;;25.08;45.30
55271;BME280;41132;47.162;9.470;2023-05-29T07:10:45;96423.38;;;25.59;44.63
55271;BME280;41132;47.162;9.470;2023-05-29T07:13:15;96433.16;;;25.21;45.93
55271;BME280;41132;47.162;9.470;2023-05-29T07:15:40;96436.31;;;25.90;47.61
55271;BME280;41132;47.162;9.470;2023-05-29T07:18:06;96421.03;;;25.95;44.32
55271;BME280;41132;47.162;9.470;2023-05-29T07:20:31;96433.13;;;26.25;43.74
55271;BME280;41132;47.162;9.470;2023-05-29T07:22:56;96421.31;;;26.26;43.63
55271;BME280;41132;47.162;9.470;2023-05-29T07:25:22;96438.63;;;26.40;42.93
55271;BME280;41132;47.162;9.470;2023-05-29T07:27:47;96440.38;;;26.24;42.09
55271;BME280;41132;47.162;9.470;2023-05-29T07:30:13;96435.03;;;26.62;43.31
55271;BME280;41132;47.162;9.470;2023-05-29T07:32:38;96436.88;;;26.56;41.22
55271;BME280;41132;47.162;9.470;2023-05-29T07:35:04;96425.34;;;26.29;42.33
55271;BME280;41132;47.162;9.470;2023-05-29T07:37:30;96445.06;;;26.72;41.78
55271;BME280;41132;47.162;9.470;2023-05-29T07:39:56;96442.66;;;26.43;42.15
55271;BME280;41132;47.162;9.470;2023-05-29T07:42:22;96431.28;;;26.63;40.11
55271;BME280;41132;47.162;9.470;2023-05-29T07:44:47;96432.66;;;26.71;40.23
55271;BME280;41132;47.162;9.470;2023-05-29T07:47:13;96433.66;;;27.07;39.52
55271;BME280;41132;47.162;9.470;2023-05-29T07:49:39;96434.91;;;27.37;40.08
55271;BME280;41132;47.162;9.470;2023-05-29T07:52:05;96433.16;;;27.15;38.53
55271;BME280;41132;47.162;9.470;2023-05-29T07:54:33;96435.28;;;27.08;39.13
55271;BME280;41132;47.162;9.470;2023-05-29T07:56:59;96433.94;;;27.11;39.77
55271;BME280;41132;47.162;9.470;2023-05-29T07:59:25;96431.38;;;27.31;40.46
55271;BME280;41132;47.162;9.470;2023-05-29T08:01:51;96433.88;;;27.53;39.69
55271;BME280;41132;47.162;9.470;2023-05-29T08:04:17;96443.50;;;27.39;40.19
55271;BME280;41132;47.162;9.470;2023-05-29T08:06:42;96442.34;;;28.08;41.37
55271;BME280;41132;47.162;9.470;2023-05-29T08:09:09;96433.72;;;28.06;42.95
55271;BME280;41132;47.162;9.470;2023-05-29T08:11:36;96417.19;;;27.77;40.70
55271;BME280;41132;47.162;9.470;2023-05-29T08:14:01;96423.19;;;27.94;38.90
55271;BME280;41132;47.162;9.470;2023-05-29T08:16:27;96425.06;;;28.29;41.02
55271;BME280;41132;47.162;9.470;2023-05-29T08:18:53;96433.97;;;28.61;40.09
55271;BME280;41132;47.162;9.470;2023-05-29T08:21:18;96428.56;;;27.99;40.16
55271;BME280;41132;47.162;9.470;2023-05-29T08:23:44;96429.94;;;28.12;39.53
55271;BME280;41132;47.162;9.470;2023-05-29T08:26:10;96442.06;;;28.35;39.62
55271;BME280;41132;47.162;9.470;2023-05-29T08:28:36;96441.00;;;28.31;37.97
55271;BME280;41132;47.162;9.470;2023-05-29T08:31:01;96442.06;;;28.15;37.81
55271;BME280;41132;47.162;9.470;2023-05-29T08:33:27;96439.94;;;28.11;38.74
55271;BME280;41132;47.162;9.470;2023-05-29T08:35:52;96443.94;;;28.04;39.82
55271;BME280;41132;47.162;9.470;2023-05-29T08:38:17;96426.97;;;28.14;38.11
55271;BME280;41132;47.162;9.470;2023-05-29T08:40:43;96435.84;;;27.88;38.34
55271;BME280;41132;47.162;9.470;2023-05-29T08:43:15;96444.50;;;28.11;40.81
55271;BME280;41132;47.162;9.470;2023-05-29T08:45:45;96450.13;;;28.86;39.29
55271;BME280;41132;47.162;9.470;2023-05-29T08:48:14;96432.38;;;28.39;38.90
55271;BME280;41132;47.162;9.470;2023-05-29T08:50:44;96433.44;;;28.59;39.01
55271;BME280;41132;47.162;9.470;2023-05-29T08:53:12;96423.13;;;28.91;40.99
55271;BME280;41132;47.162;9.470;2023-05-29T08:55:38;96427.75;;;28.65;38.39
55271;BME280;41132;47.162;9.470;2023-05-29T08:58:04;96410.09;;;29.09;39.02
55271;BME280;41132;47.162;9.470;2023-05-29T09:00:31;96415.47;;;29.19;37.70
55271;BME280;41132;47.162;9.470;2023-05-29T09:02:57;96421.84;;;28.58;35.85
55271;BME280;41132;47.162;9.470;2023-05-29T09:05:24;96424.75;;;28.87;37.88
55271;BME280;41132;47.162;9.470;2023-05-29T09:07:56;96420.50;;;28.56;36.97
55271;BME280;41132;47.162;9.470;2023-05-29T09:10:21;96406.94;;;28.76;37.24
55271;BME280;41132;47.162;9.470;2023-05-29T09:12:48;96422.31;;;28.86;37.63
55271;BME280;41132;47.162;9.470;2023-05-29T09:15:23;96419.13;;;28.73;37.08
55271;BME280;41132;47.162;9.470;2023-05-29T09:17:56;96420.47;;;28.61;37.72
55271;BME280;41132;47.162;9.470;2023-05-29T09:20:23;96423.66;;;28.83;36.34
55271;BME280;41132;47.162;9.470;2023-05-29T09:23:00;96419.31;;;28.92;35.20
55271;BME280;41132;47.162;9.470;2023-05-29T09:25:28;96419.69;;;29.46;36.08
55271;BME280;41132;47.162;9.470;2023-05-29T09:28:01;96403.66;;;28.94;33.42
55271;BME280;41132;47.162;9.470;2023-05-29T09:30:42;96419.81;;;29.15;35.10
55271;BME280;41132;47.162;9.470;2023-05-29T09:33:10;96421.78;;;29.54;38.52
55271;BME280;41132;47.162;9.470;2023-05-29T09:35:47;96424.44;;;29.69;34.06
55271;BME280;41132;47.162;9.470;2023-05-29T09:38:14;96419.31;;;30.07;36.28
55271;BME280;41132;47.162;9.470;2023-05-29T09:40:41;96419.88;;;29.54;34.51
55271;BME280;41132;47.162;9.470;2023-05-29T09:43:11;96426.66;;;29.57;31.32
55271;BME280;41132;47.162;9.470;2023-05-29T09:45:44;96414.13;;;30.11;35.60
55271;BME280;41132;47.162;9.470;2023-05-29T09:48:15;96409.19;;;30.23;35.74
55271;BME280;41132;47.162;9.470;2023-05-29T09:50:50;96402.66;;;30.24;37.45
55271;BME280;41132;47.162;9.470;2023-05-29T09:53:23;96420.06;;;30.47;36.68
55271;BME280;41132;47.162;9.470;2023-05-29T09:55:50;96427.06;;;29.85;35.74
55271;BME280;41132;47.162;9.470;2023-05-29T09:58:19;96420.19;;;29.53;35.87
55271;BME280;41132;47.162;9.470;2023-05-29T10:00:45;96421.41;;;29.21;35.29
55271;BME280;41132;47.162;9.470;2023-05-29T10:03:12;96418.50;;;29.62;39.13
55271;BME280;41132;47.162;9.470;2023-05-29T10:05:39;96417.72;;;29.62;36.77
55271;BME280;41132;47.162;9.470;2023-05-29T10:08:11;96406.16;;;29.95;39.44
55271;BME280;41132;47.162;9.470;2023-05-29T10:10:40;96403.94;;;29.97;36.04
55271;BME280;41132;47.162;9.470;2023-05-29T10:13:10;96418.91;;;30.24;39.00
55271;BME280;41132;47.162;9.470;2023-05-29T10:15:37;96411.44;;;30.45;37.62
55271;BME280;41132;47.162;9.470;2023-05-29T10:18:03;96382.50;;;30.06;37.85
55271;BME280;41132;47.162;9.470;2023-05-29T10:20:33;96401.91;;;30.18;38.71
55271;BME280;41132;47.162;9.470;2023-05-29T10:23:01;96401.50;;;30.35;37.19
55271;BME280;41132;47.162;9.470;2023-05-29T10:25:33;96391.34;;;29.83;39.35
55271;BME280;41132;47.162;9.470;2023-05-29T10:28:01;96374.88;;;29.84;37.24
55271;BME280;41132;47.162;9.470;2023-05-29T10:30:43;96384.03;;;30.17;38.31
55271;BME280;41132;47.162;9.470;2023-05-29T10:33:37;96386.19;;;29.86;38.43
55271;BME280;41132;47.162;9.470;2023-05-29T10:36:18;96378.97;;;29.76;36.96
55271;BME280;41132;47.162;9.470;2023-05-29T10:38:45;96367.91;;;29.18;37.42
55271;BME280;41132;47.162;9.470;2023-05-29T10:43:57;96376.47;;;28.65;39.83
55271;BME280;41132;47.162;9.470;2023-05-29T10:49:20;96370.81;;;27.64;38.70
55271;BME280;41132;47.162;9.470;2023-05-29T10:51:47;96368.13;;;27.59;44.48
55271;BME280;41132;47.162;9.470;2023-05-29T10:54:13;96350.47;;;27.16;42.33
55271;BME280;41132;47.162;9.470;2023-05-29T10:56:40;96340.66;;;26.84;44.49
55271;BME280;41132;47.162;9.470;2023-05-29T10:59:07;96355.13;;;26.67;45.76
55271;BME280;41132;47.162;9.470;2023-05-29T11:01:33;96359.59;;;26.52;45.23
55271;BME280;41132;47.162;9.470;2023-05-29T11:06:41;96367.06;;;26.02;45.81
55271;BME280;41132;47.162;9.470;2023-05-29T11:12:24;96352.66;;;25.86;46.02
55271;BME280;41132;47.162;9.470;2023-05-29T11:15:10;96354.13;;;25.67;44.57
55271;BME280;41132;47.162;9.470;2023-05-29T11:20:06;96347.22;;;25.21;42.61
55271;BME280;41132;47.162;9.470;2023-05-29T11:25:10;96329.13;;;24.90;42.20
55271;BME280;41132;47.162;9.470;2023-05-29T11:27:38;96345.00;;;24.91;42.18
55271;BME280;41132;47.162;9.470;2023-05-29T11:30:05;96348.16;;;24.88;42.91
55271;BME280;41132;47.162;9.470;2023-05-29T11:32:34;96346.16;;;24.78;43.23
55271;BME280;41132;47.162;9.470;2023-05-29T11:35:07;96319.50;;;24.50;42.61
55271;BME280;41132;47.162;9.470;2023-05-29T11:37:43;96334.63;;;24.78;44.32
55271;BME280;41132;47.162;9.470;2023-05-29T11:40:11;96339.44;;;24.76;44.13
55271;BME280;41132;47.162;9.470;2023-05-29T11:42:44;96333.13;;;24.65;42.68
55271;BME280;41132;47.162;9.470;2023-05-29T11:45:18;96337.50;;;24.71;43.53
55271;BME280;41132;47.162;9.470;2023-05-29T11:47:54;96343.22;;;24.58;41.52
55271;BME280;41132;47.162;9.470;2023-05-29T11:50:24;96340.63;;;24.46;42.01
55271;BME280;41132;47.162;9.470;2023-05-29T11:52:50;96336.75;;;24.37;42.38
55271;BME280;41132;47.162;9.470;2023-05-29T11:55:18;96331.00;;;24.28;41.60
55271;BME280;41132;47.162;9.470;2023-05-29T11:57:44;96330.03;;;24.17;41.77
55271;BME280;41132;47.162;9.470;2023-05-29T12:00:13;96332.06;;;24.10;40.93
55271;BME280;41132;47.162;9.470;2023-05-29T12:02:39;96316.88;;;23.99;41.61
55271;BME280;41132;47.162;9.470;2023-05-29T12:05:05;96326.38;;;24.24;41.89
55271;BME280;41132;47.162;9.470;2023-05-29T12:07:33;96331.16;;;24.05;41.88
55271;BME280;41132;47.162;9.470;2023-05-29T12:10:18;96325.25;;;24.03;41.45
55271;BME280;41132;47.162;9.470;2023-05-29T12:12:48;96310.00;;;24.03;41.93
55271;BME280;41132;47.162;9.470;2023-05-29T12:15:13;96322.16;;;24.11;42.31
55271;BME280;41132;47.162;9.470;2023-05-29T12:17:40;96322.56;;;24.03;42.79
55271;BME280;41132;47.162;9.470;2023-05-29T12:20:06;96332.00;;;24.05;42.68
55271;BME280;41132;47.162;9.470;2023-05-29T12:22:36;96322.19;;;23.94;41.83
55271;BME280;41132;47.162;9.470;2023-05-29T12:25:10;96320.06;;;23.96;42.37
55271;BME280;41132;47.162;9.470;2023-05-29T12:27:38;96321.03;;;23.90;42.08
55271;BME280;41132;47.162;9.470;2023-05-29T12:30:09;96326.31;;;24.02;40.91
55271;BME280;41132;47.162;9.470;2023-05-29T12:32:39;96327.28;;;23.95;42.03
55271;BME280;41132;47.162;9.470;2023-05-29T12:35:21;96311.06;;;23.85;41.73
55271;BME280;41132;47.162;9.470;2023-05-29T12:38:01;96318.03;;;23.86;40.69
55271;BME280;41132;47.162;9.470;2023-05-29T12:40:29;96314.41;;;23.75;41.14
55271;BME280;41132;47.162;9.470;2023-05-29T12:42:59;96318.75;;;23.82;41.36
55271;BME280;41132;47.162;9.470;2023-05-29T12:45:27;96310.88;;;23.75;41.12
55271;BME280;41132;47.162;9.470;2023-05-29T12:47:55;96314.03;;;23.72;41.59
55271;BME280;41132;47.162;9.470;2023-05-29T12:50:25;96320.06;;;23.79;41.87
55271;BME280;41132;47.162;9.470;2023-05-29T12:53:01;96325.41;;;23.79;40.03
55271;BME280;41132;47.162;9.470;2023-05-29T12:55:28;96312.41;;;23.71;41.76
55271;BME280;41132;47.162;9.470;2023-05-29T12:57:55;96321.25;;;23.71;40.66
55271;BME280;41132;47.162;9.470;2023-05-29T13:00:21;96318.47;;;23.66;40.42
55271;BME280;41132;47.162;9.470;2023-05-29T13:02:48;96312.66;;;23.69;41.90
55271;BME280;41132;47.162;9.470;2023-05-29T13:05:14;96307.69;;;23.61;40.82
55271;BME280;41132;47.162;9.470;2023-05-29T13:07:44;96311.28;;;23.67;41.54
55271;BME280;41132;47.162;9.470;2023-05-29T13:10:10;96325.25;;;23.69;40.25
55271;BME280;41132;47.162;9.470;2023-05-29T13:12:36;96301.53;;;23.61;41.24
55271;BME280;41132;47.162;9.470;2023-05-29T13:15:02;96310.53;;;23.71;41.89
55271;BME280;41132;47.162;9.470;2023-05-29T13:17:27;96293.25;;;23.62;41.59
55271;BME280;41132;47.162;9.470;2023-05-29T13:19:53;96317.22;;;23.69;40.40